Time;durP1;ratioP1;P1;durP2;ratioP2;P2;SDS_P1;SDS_P2;PMS_P1;PMS_P2;Temp;Humidity;BMP_temperature;BMP_pressure;BME280_temperature;BME280_humidity;BME280_pressure;Samples;Min_cycle;Max_cycle;Signal;HPM_P1;HPM_P2
2024/01/25 00:01:17;;;;;;;21.27;4.78;;;7.40;99.90;;;;;;5032237;28;20046;-83
2024/01/25 00:03:42;;;;;;;26.23;4.70;;;7.40;99.90;;;;;;5031614;28;20037;-83
2024/01/25 00:06:08;;;;;;;34.38;5.03;;;7.40;99.90;;;;;;5032957;28;20041;-83
2024/01/25 00:08:34;;;;;;;35.50;5.22;;;7.40;99.90;;;;;;5031472;28;20522;-82
2024/01/25 00:11:02;;;;;;;29.20;5.30;;;7.30;99.90;;;;;;5030504;28;20041;-83
2024/01/25 00:13:27;;;;;;;23.40;4.22;;;7.30;99.90;;;;;;5031231;28;20056;-82
2024/01/25 00:15:53;;;;;;;29.08;3.78;;;7.30;99.90;;;;;;5030981;28;20399;-82
2024/01/25 00:18:19;;;;;;;23.75;4.32;;;7.30;99.90;;;;;;5031497;28;20052;-83
2024/01/25 00:20:44;;;;;;;32.53;4.75;;;7.30;99.90;;;;;;5031446;28;20046;-82
2024/01/25 00:23:11;;;;;;;24.98;5.30;;;7.30;99.90;;;;;;5030825;28;20045;-82
2024/01/25 00:25:36;;;;;;;27.70;3.95;;;7.20;99.90;;;;;;5032360;28;20053;-84
2024/01/25 00:28:03;;;;;;;33.10;4.53;;;7.20;99.90;;;;;;5032299;28;20076;-84
2024/01/25 00:30:29;;;;;;;25.70;3.95;;;7.20;99.90;;;;;;5032533;28;20104;-84
2024/01/25 00:32:56;;;;;;;28.08;4.75;;;7.20;99.90;;;;;;5029242;28;20446;-82
2024/01/25 00:35:22;;;;;;;29.65;4.95;;;7.20;99.90;;;;;;5029608;28;20045;-84
2024/01/25 00:37:48;;;;;;;27.50;3.83;;;7.10;99.90;;;;;;5029755;28;20667;-83
2024/01/25 00:40:14;;;;;;;22.58;4.68;;;7.10;99.90;;;;;;5029762;28;20450;-85
2024/01/25 00:42:43;;;;;;;23.00;3.67;;;7.10;99.90;;;;;;5028539;28;20053;-81
2024/01/25 00:45:09;;;;;;;23.27;5.10;;;7.10;99.90;;;;;;5031505;28;20041;-84
2024/01/25 00:47:35;;;;;;;31.30;4.15;;;7.10;99.90;;;;;;5030187;28;20045;-83
2024/01/25 00:50:01;;;;;;;29.42;4.18;;;7.10;99.90;;;;;;5029206;28;20038;-82
2024/01/25 00:52:27;;;;;;;35.15;4.82;;;7.10;99.90;;;;;;5029478;28;20479;-83
2024/01/25 00:54:53;;;;;;;34.85;5.72;;;7.00;99.90;;;;;;5014479;28;20045;-83
2024/01/25 00:57:19;;;;;;;24.73;4.78;;;7.00;99.90;;;;;;5027992;28;20057;-83
2024/01/25 00:59:45;;;;;;;31.02;5.57;;;7.00;99.90;;;;;;5032987;28;20360;-81
2024/01/25 01:02:12;;;;;;;23.75;4.57;;;7.00;99.90;;;;;;5033981;28;20045;-81
2024/01/25 01:04:38;;;;;;;32.83;4.22;;;7.00;99.90;;;;;;5033797;28;20133;-83
2024/01/25 01:07:04;;;;;;;35.20;4.60;;;7.00;99.90;;;;;;5033663;28;20053;-83
2024/01/25 01:09:30;;;;;;;24.80;4.45;;;6.90;99.90;;;;;;5032437;28;20053;-84
2024/01/25 01:11:56;;;;;;;28.10;5.30;;;7.00;99.90;;;;;;5032843;28;20348;-83
2024/01/25 01:14:22;;;;;;;30.92;4.60;;;6.90;99.90;;;;;;5033702;28;20099;-83
2024/01/25 01:16:47;;;;;;;27.60;4.60;;;7.30;99.90;;;;;;5020269;28;20387;-82
2024/01/25 01:19:13;;;;;;;42.55;5.15;;;6.80;99.90;;;;;;5012705;28;20644;-82
2024/01/25 01:21:43;;;;;;;27.73;4.22;;;6.80;99.90;;;;;;5012562;28;20512;-83
2024/01/25 01:24:11;;;;;;;24.23;5.00;;;6.90;99.90;;;;;;5011443;28;20161;-82
2024/01/25 01:26:37;;;;;;;23.73;4.63;;;6.80;99.90;;;;;;5025992;28;20443;-82
2024/01/25 01:29:03;;;;;;;26.02;4.03;;;6.70;99.90;;;;;;5032390;28;20103;-83
2024/01/25 01:31:29;;;;;;;28.98;4.55;;;6.70;99.90;;;;;;5033182;28;20041;-83
2024/01/25 01:33:54;;;;;;;31.08;5.35;;;6.70;99.90;;;;;;5032017;28;20046;-82
2024/01/25 01:36:21;;;;;;;31.90;5.03;;;6.80;99.90;;;;;;5032491;28;20045;-83
2024/01/25 01:38:47;;;;;;;25.50;4.47;;;6.70;99.90;;;;;;5033498;28;20049;-82
2024/01/25 01:41:13;;;;;;;32.70;5.15;;;6.70;99.90;;;;;;5032590;28;20045;-83
2024/01/25 01:43:39;;;;;;;28.17;5.75;;;6.70;99.90;;;;;;5033597;28;20095;-83
2024/01/25 01:46:11;;;;;;;23.88;4.22;;;6.60;99.90;;;;;;5031913;28;20048;-81
2024/01/25 01:48:38;;;;;;;36.45;4.50;;;6.60;99.90;;;;;;5033221;28;20517;-83
2024/01/25 01:51:04;;;;;;;33.05;5.10;;;6.60;99.90;;;;;;5033502;28;20045;-82
2024/01/25 01:53:32;;;;;;;23.88;4.18;;;6.60;99.90;;;;;;5033463;28;20683;-83
2024/01/25 01:55:58;;;;;;;31.88;4.78;;;6.60;99.90;;;;;;5033063;28;20439;-83
2024/01/25 01:58:25;;;;;;;23.58;4.82;;;6.50;99.90;;;;;;5033157;28;20049;-84
2024/01/25 02:00:52;;;;;;;30.98;4.85;;;6.50;99.90;;;;;;5033197;28;20057;-83
2024/01/25 02:03:18;;;;;;;25.13;4.32;;;6.50;99.90;;;;;;5032815;28;20049;-84
2024/01/25 02:05:43;;;;;;;28.30;4.88;;;6.50;99.90;;;;;;5032393;28;20111;-83
2024/01/25 02:08:09;;;;;;;21.20;4.53;;;6.50;99.90;;;;;;5032304;28;20064;-83
2024/01/25 02:10:35;;;;;;;38.67;6.13;;;6.50;99.90;;;;;;5033284;28;20049;-81
2024/01/25 02:13:00;;;;;;;23.88;4.63;;;6.50;99.90;;;;;;5031800;28;20041;-83
2024/01/25 02:15:26;;;;;;;30.65;5.25;;;6.40;99.90;;;;;;5032817;28;20070;-84
2024/01/25 02:17:52;;;;;;;21.50;4.07;;;6.40;99.90;;;;;;5032140;28;20132;-83
2024/01/25 02:20:18;;;;;;;33.53;5.32;;;6.40;99.90;;;;;;5031797;28;20049;-83
2024/01/25 02:22:44;;;;;;;36.35;6.30;;;6.40;99.90;;;;;;5032197;28;20135;-83
2024/01/25 02:25:09;;;;;;;25.25;5.60;;;6.40;99.90;;;;;;5031830;28;20495;-83
2024/01/25 02:27:38;;;;;;;24.08;3.70;;;6.40;99.90;;;;;;5013904;28;20054;-83
2024/01/25 02:30:06;;;;;;;28.30;5.13;;;6.40;99.90;;;;;;5012202;28;20522;-83
2024/01/25 02:32:32;;;;;;;26.90;4.78;;;6.30;99.90;;;;;;5012107;28;20092;-82
2024/01/25 02:34:58;;;;;;;30.52;4.78;;;6.30;99.90;;;;;;5028642;28;20100;-83
2024/01/25 02:37:23;;;;;;;25.60;5.05;;;6.30;99.90;;;;;;5013042;28;20034;-83
2024/01/25 02:39:49;;;;;;;28.85;5.38;;;6.30;99.90;;;;;;5031648;28;20191;-83
2024/01/25 02:42:16;;;;;;;24.50;4.55;;;6.20;99.90;;;;;;5031895;28;20052;-82
2024/01/25 02:44:42;;;;;;;34.60;5.43;;;6.20;99.90;;;;;;5031569;28;20403;-82
2024/01/25 02:47:08;;;;;;;24.10;4.15;;;6.20;99.90;;;;;;5032158;28;20050;-83
2024/01/25 02:49:34;;;;;;;28.40;5.07;;;6.20;99.90;;;;;;5028475;28;20049;-83
2024/01/25 02:52:00;;;;;;;26.98;5.20;;;6.20;99.90;;;;;;5031804;28;20072;-83
2024/01/25 02:54:25;;;;;;;31.48;6.03;;;6.20;99.90;;;;;;5031166;28;20085;-83
2024/01/25 02:56:51;;;;;;;26.77;4.38;;;6.20;99.90;;;;;;5032074;28;20053;-82
2024/01/25 02:59:17;;;;;;;33.78;4.97;;;6.20;99.90;;;;;;5017149;28;20372;-83
2024/01/25 03:01:44;;;;;;;31.83;5.47;;;6.20;99.90;;;;;;5011723;28;20041;-83
2024/01/25 03:04:11;;;;;;;29.98;5.85;;;6.20;99.90;;;;;;5012299;28;20400;-83
2024/01/25 03:06:37;;;;;;;25.95;4.25;;;6.10;99.90;;;;;;5016881;28;20103;-83
2024/01/25 03:09:05;;;;;;;26.20;4.40;;;6.10;99.90;;;;;;5021095;28;20495;-83
2024/01/25 03:11:34;;;;;;;42.33;7.15;;;6.10;99.90;;;;;;5031952;28;20099;-82
2024/01/25 03:14:01;;;;;;;28.70;5.35;;;6.10;99.90;;;;;;5031643;28;20045;-83
2024/01/25 03:16:27;;;;;;;27.30;5.05;;;6.10;99.90;;;;;;5034596;28;20395;-83
2024/01/25 03:18:52;;;;;;;32.55;6.65;;;6.10;99.90;;;;;;5035042;28;20050;-82
2024/01/25 03:21:18;;;;;;;30.30;5.47;;;6.30;99.90;;;;;;5035000;28;20045;-82
2024/01/25 03:23:43;;;;;;;39.38;5.93;;;6.10;99.90;;;;;;5035112;28;20140;-83
2024/01/25 03:26:09;;;;;;;30.00;5.80;;;6.10;99.90;;;;;;5034863;28;20403;-83
2024/01/25 03:28:39;;;;;;;34.00;5.10;;;6.00;99.90;;;;;;5036202;28;20049;-83
2024/01/25 03:31:05;;;;;;;29.35;5.18;;;6.00;99.90;;;;;;5034508;28;20076;-83
2024/01/25 03:33:32;;;;;;;37.78;6.57;;;6.00;99.90;;;;;;5018785;28;20836;-82
2024/01/25 03:36:07;;;;;;;28.00;6.15;;;6.00;99.90;;;;;;5036161;28;20042;-83
2024/01/25 03:38:33;;;;;;;30.17;5.15;;;6.00;99.90;;;;;;5034847;28;20055;-83
2024/01/25 03:40:59;;;;;;;47.97;5.97;;;6.10;99.90;;;;;;5034936;28;20132;-83
2024/01/25 03:43:25;;;;;;;32.47;4.47;;;5.90;99.90;;;;;;5034926;28;20095;-82
2024/01/25 03:45:51;;;;;;;31.30;5.25;;;5.90;99.90;;;;;;5034396;28;20042;-81
2024/01/25 03:48:17;;;;;;;24.00;4.50;;;5.90;99.90;;;;;;5034370;28;20128;-83
2024/01/25 03:50:43;;;;;;;28.48;5.05;;;5.90;99.90;;;;;;5034483;28;20415;-83
2024/01/25 03:53:08;;;;;;;27.23;5.05;;;5.90;99.90;;;;;;5033972;28;20056;-84
2024/01/25 03:55:34;;;;;;;38.13;6.82;;;5.90;99.90;;;;;;5034564;28;20080;-83
2024/01/25 03:58:00;;;;;;;43.45;6.82;;;5.90;99.90;;;;;;5034482;28;20049;-83
2024/01/25 04:00:26;;;;;;;40.05;7.53;;;5.90;99.90;;;;;;5017847;28;20088;-83
2024/01/25 04:02:51;;;;;;;37.40;7.22;;;5.90;99.90;;;;;;5017712;28;20455;-83
2024/01/25 04:05:17;;;;;;;32.05;5.13;;;5.80;99.90;;;;;;5034043;28;20038;-82
2024/01/25 04:07:43;;;;;;;37.40;5.35;;;5.80;99.90;;;;;;5034284;28;20045;-82
2024/01/25 04:10:09;;;;;;;29.35;5.53;;;5.80;99.90;;;;;;5024563;28;20120;-82
2024/01/25 04:12:34;;;;;;;31.42;7.00;;;5.80;99.90;;;;;;5034262;28;20132;-81
2024/01/25 04:15:00;;;;;;;31.08;4.82;;;5.80;99.90;;;;;;5033972;28;20103;-82
2024/01/25 04:17:26;;;;;;;34.70;6.35;;;5.70;99.90;;;;;;5034250;28;20045;-82
2024/01/25 04:19:51;;;;;;;31.60;5.22;;;5.70;99.90;;;;;;5033890;28;20042;-82
2024/01/25 04:22:17;;;;;;;31.48;5.00;;;5.70;99.90;;;;;;5033914;28;20049;-82
2024/01/25 04:24:43;;;;;;;23.77;4.50;;;6.30;99.90;;;;;;5017085;28;20096;-83
2024/01/25 04:27:12;;;;;;;26.33;4.63;;;6.10;99.90;;;;;;5032970;28;20053;-82
2024/01/25 04:29:44;;;;;;;28.88;5.00;;;5.70;99.90;;;;;;5030220;28;20058;-82
2024/01/25 04:32:10;;;;;;;40.30;5.88;;;5.60;99.90;;;;;;5014705;28;20073;-83
2024/01/25 04:34:36;;;;;;;27.20;5.53;;;5.60;99.90;;;;;;5015328;28;20074;-81
2024/01/25 04:37:02;;;;;;;32.25;5.90;;;5.60;99.90;;;;;;5030022;28;20822;-82
2024/01/25 04:39:27;;;;;;;30.85;5.32;;;5.60;99.90;;;;;;5016508;28;20067;-83
2024/01/25 04:41:53;;;;;;;30.40;5.40;;;5.60;99.90;;;;;;5033569;28;20041;-82
2024/01/25 04:44:19;;;;;;;36.83;6.50;;;5.50;99.90;;;;;;5033721;28;20072;-82
2024/01/25 04:46:44;;;;;;;35.72;6.20;;;5.90;99.90;;;;;;5033427;28;20049;-81
2024/01/25 04:49:10;;;;;;;26.35;4.32;;;5.50;99.90;;;;;;5033484;28;20115;-83
2024/01/25 04:51:36;;;;;;;35.42;5.53;;;5.50;99.90;;;;;;5033084;28;20087;-81
2024/01/25 04:54:02;;;;;;;26.17;5.13;;;5.40;99.90;;;;;;5032968;28;20049;-82
2024/01/25 04:56:28;;;;;;;32.72;6.72;;;5.40;99.90;;;;;;5033471;28;20052;-82
2024/01/25 04:58:54;;;;;;;33.30;5.78;;;5.40;99.90;;;;;;5033200;28;20395;-82
2024/01/25 05:01:20;;;;;;;32.42;5.40;;;5.40;99.90;;;;;;5032068;28;20057;-81
2024/01/25 05:03:45;;;;;;;33.00;5.68;;;5.30;99.90;;;;;;5015932;28;20132;-81
2024/01/25 05:06:11;;;;;;;35.13;5.90;;;5.30;99.90;;;;;;5031790;28;20706;-81
2024/01/25 05:08:36;;;;;;;41.63;6.22;;;5.30;99.90;;;;;;5026603;28;20072;-83
2024/01/25 05:11:02;;;;;;;30.05;5.72;;;5.30;99.90;;;;;;5041340;28;20128;-82
2024/01/25 05:13:28;;;;;;;32.08;4.97;;;5.30;99.90;;;;;;5031971;28;20055;-82
2024/01/25 05:15:54;;;;;;;25.30;4.63;;;5.30;99.90;;;;;;5033122;28;20057;-82
2024/01/25 05:18:20;;;;;;;30.00;5.93;;;5.30;99.90;;;;;;5034087;28;20052;-83
2024/01/25 05:20:45;;;;;;;34.75;6.45;;;5.20;99.90;;;;;;5032324;28;20372;-82
2024/01/25 05:23:11;;;;;;;39.25;6.07;;;5.20;99.90;;;;;;5033996;28;20045;-82
2024/01/25 05:25:37;;;;;;;32.33;7.25;;;5.20;99.90;;;;;;5032442;28;20053;-82
2024/01/25 05:28:03;;;;;;;32.03;5.30;;;5.20;99.90;;;;;;5032552;28;20049;-82
2024/01/25 05:30:30;;;;;;;33.28;5.38;;;5.20;99.90;;;;;;5021288;28;20516;-83
2024/01/25 05:32:56;;;;;;;35.25;6.38;;;5.20;99.90;;;;;;5012985;28;20054;-83
2024/01/25 05:35:23;;;;;;;40.95;5.60;;;5.20;99.90;;;;;;5012706;28;20112;-82
2024/01/25 05:37:49;;;;;;;35.08;6.00;;;5.60;99.90;;;;;;4995961;28;20037;-81
2024/01/25 05:40:15;;;;;;;35.67;5.25;;;5.10;99.90;;;;;;5020011;28;20133;-81
2024/01/25 05:42:40;;;;;;;34.58;5.22;;;5.10;99.90;;;;;;5030733;28;20037;-80
2024/01/25 05:45:09;;;;;;;35.83;5.30;;;5.10;99.90;;;;;;5022190;28;20096;-85
2024/01/25 05:47:34;;;;;;;31.88;6.57;;;5.10;99.90;;;;;;5028786;28;20068;-82
2024/01/25 05:50:00;;;;;;;30.55;5.78;;;5.10;99.90;;;;;;5025767;28;20556;-82
2024/01/25 05:52:26;;;;;;;35.85;5.70;;;5.10;99.90;;;;;;5031615;28;20049;-82
2024/01/25 05:54:51;;;;;;;38.35;6.05;;;5.00;99.90;;;;;;5032128;28;20156;-82
2024/01/25 05:57:18;;;;;;;39.90;5.38;;;5.00;99.90;;;;;;5032414;28;20052;-82
2024/01/25 05:59:44;;;;;;;30.63;5.13;;;5.20;99.90;;;;;;5015400;28;20041;-82
2024/01/25 06:02:10;;;;;;;40.40;6.15;;;5.00;99.90;;;;;;5031696;28;20132;-83
2024/01/25 06:04:35;;;;;;;21.80;4.63;;;5.00;99.90;;;;;;5031660;28;20076;-82
2024/01/25 06:07:01;;;;;;;36.70;6.35;;;5.00;99.90;;;;;;5050831;28;20536;-82
2024/01/25 06:09:27;;;;;;;34.55;5.55;;;4.90;99.90;;;;;;5011848;28;20415;-82
2024/01/25 06:11:53;;;;;;;32.00;4.85;;;4.90;99.90;;;;;;5031673;28;20131;-83
2024/01/25 06:14:19;;;;;;;25.17;4.97;;;4.90;99.90;;;;;;5015417;28;20088;-83
2024/01/25 06:16:44;;;;;;;38.15;5.68;;;4.90;99.90;;;;;;5028440;28;20067;-84
2024/01/25 06:19:10;;;;;;;42.65;5.15;;;4.90;99.90;;;;;;5031407;28;22011;-82
2024/01/25 06:21:37;;;;;;;43.78;5.70;;;4.90;99.90;;;;;;5028539;28;20056;-82
2024/01/25 06:24:04;;;;;;;41.58;5.07;;;4.80;99.90;;;;;;5031607;28;20061;-84
2024/01/25 06:26:30;;;;;;;41.85;6.32;;;4.80;99.90;;;;;;5029094;28;20064;-84
2024/01/25 06:28:56;;;;;;;36.83;6.75;;;4.70;99.90;;;;;;5031735;28;20041;-82
2024/01/25 06:31:26;;;;;;;41.67;6.28;;;4.80;99.90;;;;;;5012790;28;20475;-83
2024/01/25 06:33:52;;;;;;;30.73;5.35;;;4.80;99.90;;;;;;4997557;28;20085;-81
2024/01/25 06:36:22;;;;;;;46.50;6.57;;;4.70;99.90;;;;;;5027815;28;20495;-81
2024/01/25 06:38:48;;;;;;;43.03;6.18;;;4.70;99.90;;;;;;5031273;28;20054;-81
2024/01/25 06:41:14;;;;;;;25.70;5.60;;;4.70;99.90;;;;;;5031681;28;20103;-81
2024/01/25 06:43:40;;;;;;;30.55;5.97;;;4.70;99.90;;;;;;5032972;28;20116;-82
2024/01/25 06:46:07;;;;;;;31.50;5.30;;;4.70;99.90;;;;;;5031170;28;20124;-81
2024/01/25 06:48:33;;;;;;;36.35;5.78;;;4.70;99.90;;;;;;5032122;28;20052;-80
2024/01/25 06:50:59;;;;;;;29.92;6.22;;;4.60;99.90;;;;;;5033328;28;20041;-82
2024/01/25 06:53:24;;;;;;;34.80;6.25;;;4.70;99.90;;;;;;5035181;28;20049;-82
2024/01/25 06:55:50;;;;;;;31.20;5.65;;;4.60;99.90;;;;;;5034168;28;20099;-82
2024/01/25 06:58:16;;;;;;;34.60;6.03;;;4.60;99.90;;;;;;5031727;28;20045;-80
2024/01/25 07:00:42;;;;;;;35.28;6.90;;;4.60;99.90;;;;;;5034400;28;20056;-81
2024/01/25 07:03:08;;;;;;;35.95;6.50;;;4.60;99.90;;;;;;5033011;28;20045;-82
2024/01/25 07:05:35;;;;;;;40.50;5.57;;;4.90;99.90;;;;;;5035168;28;20048;-82
2024/01/25 07:08:01;;;;;;;45.20;6.47;;;4.60;99.90;;;;;;5018231;28;20076;-82
2024/01/25 07:10:27;;;;;;;33.60;5.80;;;4.60;99.90;;;;;;5036236;28;20045;-81
2024/01/25 07:12:53;;;;;;;29.38;5.50;;;4.60;99.90;;;;;;5035591;28;20103;-81
2024/01/25 07:15:19;;;;;;;35.67;6.95;;;4.50;99.90;;;;;;5035168;28;20045;-82
2024/01/25 07:17:45;;;;;;;45.92;6.47;;;4.60;99.90;;;;;;5025919;28;20078;-80
2024/01/25 07:20:11;;;;;;;41.15;5.72;;;4.50;99.90;;;;;;5016443;28;20085;-81
2024/01/25 07:22:37;;;;;;;47.97;6.45;;;4.50;99.90;;;;;;5015325;28;20064;-81
2024/01/25 07:25:02;;;;;;;27.17;5.50;;;4.50;99.90;;;;;;5028575;28;20155;-82
2024/01/25 07:27:28;;;;;;;40.25;6.95;;;4.50;99.90;;;;;;5024623;28;20057;-82
2024/01/25 07:29:54;;;;;;;40.85;6.68;;;4.70;99.90;;;;;;5016188;28;20092;-83
2024/01/25 07:32:20;;;;;;;38.22;5.53;;;4.90;99.90;;;;;;5014956;28;20053;-83
2024/01/25 07:34:46;;;;;;;41.63;7.38;;;4.50;99.90;;;;;;5012556;28;20511;-81
2024/01/25 07:37:15;;;;;;;44.40;7.20;;;4.50;99.90;;;;;;5029873;28;20073;-82
2024/01/25 07:39:41;;;;;;;32.10;5.78;;;4.50;99.90;;;;;;5033429;28;20128;-81
2024/01/25 07:42:07;;;;;;;38.20;6.82;;;4.50;99.90;;;;;;5027799;28;20137;-84
2024/01/25 07:44:33;;;;;;;34.10;6.03;;;4.50;99.90;;;;;;5021249;28;20045;-81
2024/01/25 07:46:59;;;;;;;36.92;6.45;;;4.50;99.90;;;;;;5033445;28;20514;-80
2024/01/25 07:49:25;;;;;;;44.55;7.30;;;4.50;99.90;;;;;;5015742;28;20107;-81
2024/01/25 07:51:51;;;;;;;40.60;6.32;;;4.50;99.90;;;;;;5033419;28;20121;-82
2024/01/25 07:54:17;;;;;;;28.88;6.05;;;4.50;99.90;;;;;;5024221;28;20117;-81
2024/01/25 07:56:42;;;;;;;48.30;5.60;;;4.50;99.90;;;;;;5023855;28;20125;-86
2024/01/25 07:59:08;;;;;;;34.08;4.82;;;4.50;99.90;;;;;;5032693;28;20491;-81
2024/01/25 08:01:34;;;;;;;35.50;6.20;;;4.50;99.90;;;;;;5032327;28;20049;-82
2024/01/25 08:03:59;;;;;;;36.42;6.55;;;4.60;99.90;;;;;;5032386;28;20049;-82
2024/01/25 08:06:27;;;;;;;39.28;6.30;;;4.50;99.90;;;;;;5032759;28;20112;-80
2024/01/25 08:08:53;;;;;;;33.35;5.90;;;4.60;99.90;;;;;;5032366;28;20121;-82
2024/01/25 08:11:20;;;;;;;34.53;5.30;;;4.60;99.90;;;;;;5014964;28;20589;-82
2024/01/25 08:13:47;;;;;;;38.10;6.70;;;4.60;99.90;;;;;;5015730;28;20041;-82
2024/01/25 08:16:22;;;;;;;46.17;7.53;;;4.60;99.90;;;;;;5006016;28;20543;-81
2024/01/25 08:18:51;;;;;;;39.05;6.90;;;4.60;99.90;;;;;;4995828;28;20057;-81
2024/01/25 08:21:18;;;;;;;39.60;6.22;;;4.60;99.90;;;;;;5011793;28;20056;-84
2024/01/25 08:23:47;;;;;;;31.65;5.47;;;4.70;99.90;;;;;;5013526;28;20132;-82
2024/01/25 08:26:13;;;;;;;42.10;7.47;;;4.70;99.90;;;;;;5004981;28;20058;-82
2024/01/25 08:28:44;;;;;;;34.15;6.03;;;4.70;99.90;;;;;;5034825;28;20072;-82
2024/01/25 08:31:10;;;;;;;55.42;6.90;;;4.70;99.90;;;;;;5035359;28;20540;-83
2024/01/25 08:33:36;;;;;;;42.10;7.22;;;4.70;99.90;;;;;;5035129;28;20105;-82
2024/01/25 08:36:02;;;;;;;46.58;7.82;;;4.70;99.90;;;;;;5035402;28;20112;-82
2024/01/25 08:38:27;;;;;;;32.42;5.75;;;4.80;99.90;;;;;;5035371;28;20087;-82
2024/01/25 08:40:53;;;;;;;46.40;6.88;;;4.80;99.90;;;;;;5035886;28;20380;-82
2024/01/25 08:43:19;;;;;;;43.53;7.15;;;4.80;99.90;;;;;;5036293;28;20081;-84
2024/01/25 08:45:45;;;;;;;34.97;7.25;;;4.80;99.90;;;;;;5033856;28;20080;-82
2024/01/25 08:48:10;;;;;;;30.42;6.95;;;4.80;99.90;;;;;;5033808;28;20141;-81
2024/01/25 08:50:36;;;;;;;44.08;7.15;;;4.90;99.90;;;;;;5035114;28;20038;-83
2024/01/25 08:53:02;;;;;;;42.40;7.57;;;4.90;99.90;;;;;;5034356;28;20053;-82
2024/01/25 08:55:28;;;;;;;39.17;6.63;;;4.90;99.90;;;;;;5035235;28;20033;-82
2024/01/25 08:57:54;;;;;;;35.90;7.07;;;4.90;99.90;;;;;;5034408;28;20471;-82
2024/01/25 09:00:19;;;;;;;46.72;7.03;;;5.00;99.90;;;;;;5034657;28;20061;-82
2024/01/25 09:02:45;;;;;;;43.22;7.22;;;5.00;99.90;;;;;;5034189;28;20430;-80
2024/01/25 09:05:11;;;;;;;36.92;7.65;;;5.00;99.90;;;;;;5032719;28;20069;-80
2024/01/25 09:07:38;;;;;;;35.38;6.38;;;5.20;99.90;;;;;;5034098;28;20494;-82
2024/01/25 09:10:06;;;;;;;32.47;7.28;;;5.00;99.90;;;;;;5032862;28;20045;-83
2024/01/25 09:12:32;;;;;;;30.52;6.07;;;5.10;99.90;;;;;;5033849;28;20087;-82
2024/01/25 09:14:58;;;;;;;44.60;7.72;;;5.10;99.90;;;;;;5033572;28;20037;-83
2024/01/25 09:17:23;;;;;;;42.40;6.25;;;5.30;99.90;;;;;;5032937;28;20102;-82
2024/01/25 09:19:50;;;;;;;37.80;6.13;;;5.10;99.90;;;;;;5033584;28;20064;-82
2024/01/25 09:22:19;;;;;;;37.80;7.05;;;5.20;99.90;;;;;;5033972;28;20045;-88
2024/01/25 09:24:47;;;;;;;54.28;8.65;;;5.20;99.90;;;;;;5032856;28;20053;-85
2024/01/25 09:27:14;;;;;;;41.05;6.57;;;5.20;99.90;;;;;;5032601;28;20049;-85
2024/01/25 09:29:41;;;;;;;44.72;8.13;;;5.20;99.90;;;;;;5032611;28;20526;-83
2024/01/25 09:32:10;;;;;;;41.50;6.57;;;5.30;99.90;;;;;;5033608;28;20533;-83
2024/01/25 09:34:39;;;;;;;39.65;7.53;;;5.30;99.90;;;;;;5033817;28;20037;-82
2024/01/25 09:37:05;;;;;;;36.78;6.18;;;5.30;99.90;;;;;;5033817;28;20045;-82
2024/01/25 09:39:32;;;;;;;44.72;7.50;;;5.40;99.90;;;;;;5033182;28;20049;-82
2024/01/25 09:41:58;;;;;;;34.00;6.45;;;5.40;99.90;;;;;;5033460;28;20045;-83
2024/01/25 09:44:23;;;;;;;40.70;7.28;;;5.80;99.90;;;;;;5033422;28;20111;-82
2024/01/25 09:46:50;;;;;;;52.42;7.88;;;6.10;99.90;;;;;;5033479;28;20048;-83
2024/01/25 09:49:16;;;;;;;40.53;6.88;;;5.80;99.90;;;;;;5033480;28;20450;-82
2024/01/25 09:51:43;;;;;;;36.05;6.88;;;5.50;99.90;;;;;;5033480;28;20154;-82
2024/01/25 09:54:09;;;;;;;34.28;7.40;;;5.50;99.90;;;;;;5033331;28;20060;-83
2024/01/25 09:56:35;;;;;;;36.97;7.07;;;5.50;99.90;;;;;;5033368;28;20060;-83
2024/01/25 09:59:02;;;;;;;36.42;7.07;;;5.60;99.90;;;;;;5033111;28;20411;-82
2024/01/25 10:01:28;;;;;;;34.50;5.53;;;5.60;99.90;;;;;;5015483;28;20208;-83
2024/01/25 10:03:56;;;;;;;39.17;7.35;;;5.60;99.90;;;;;;5031711;28;20038;-83
2024/01/25 10:06:23;;;;;;;42.88;6.78;;;5.70;99.90;;;;;;5033171;28;20082;-82
2024/01/25 10:08:49;;;;;;;40.42;7.00;;;5.70;99.90;;;;;;5033141;28;20056;-83
2024/01/25 10:11:16;;;;;;;47.17;7.55;;;5.70;99.90;;;;;;5032881;28;20387;-82
2024/01/25 10:13:42;;;;;;;47.05;7.72;;;5.70;99.90;;;;;;5033265;28;20505;-83
2024/01/25 10:16:15;;;;;;;44.85;7.75;;;5.80;99.90;;;;;;5024296;28;20068;-80
2024/01/25 10:18:42;;;;;;;42.83;7.40;;;6.00;99.90;;;;;;5032814;28;20069;-84
2024/01/25 10:21:11;;;;;;;35.33;7.13;;;5.80;99.90;;;;;;5033257;28;20046;-84
2024/01/25 10:23:43;;;;;;;35.67;7.13;;;5.90;99.90;;;;;;5031951;28;20068;-84
2024/01/25 10:26:09;;;;;;;38.90;7.05;;;5.80;99.90;;;;;;5033849;28;20491;-84
2024/01/25 10:28:34;;;;;;;43.65;8.52;;;5.80;99.90;;;;;;5037496;28;20045;-84
2024/01/25 10:31:02;;;;;;;37.53;8.20;;;5.80;99.90;;;;;;5035883;28;20077;-84
2024/01/25 10:33:28;;;;;;;44.28;7.05;;;5.80;99.90;;;;;;5035621;28;20111;-83
2024/01/25 10:36:14;;;;;;;45.45;8.15;;;5.80;99.90;;;;;;5032321;28;20041;-86
2024/01/25 10:38:42;;;;;;;33.92;7.18;;;5.80;99.90;;;;;;5035147;28;20077;-91
2024/01/25 10:41:07;;;;;;;29.10;7.43;;;5.80;99.90;;;;;;5018491;28;20129;-90
2024/01/25 10:43:33;;;;;;;35.83;7.20;;;6.20;99.90;;;;;;5033669;28;20069;-90
2024/01/25 10:45:59;;;;;;;33.92;7.20;;;5.90;99.90;;;;;;5036803;28;20041;-91
2024/01/25 10:48:29;;;;;;;36.97;6.63;;;6.00;99.90;;;;;;5037079;28;20045;-89
2024/01/25 10:50:57;;;;;;;36.40;7.75;;;6.10;99.90;;;;;;5019886;28;20088;-89
2024/01/25 10:53:24;;;;;;;43.22;7.30;;;6.10;99.90;;;;;;5037370;28;20055;-91
2024/01/25 10:55:51;;;;;;;40.13;8.65;;;6.50;99.90;;;;;;5035998;28;20473;-91
2024/01/25 10:58:17;;;;;;;41.45;7.65;;;6.40;99.90;;;;;;4993662;28;20077;-89
2024/01/25 11:01:01;;;;;;;33.95;6.85;;;6.60;99.90;;;;;;5030811;28;20045;-90
2024/01/25 11:03:32;;;;;;;35.15;8.02;;;6.60;99.90;;;;;;5025642;28;20076;-89
2024/01/25 11:06:09;;;;;;;32.97;6.97;;;7.10;99.90;;;;;;5019025;28;20400;-91
2024/01/25 11:08:38;;;;;;;28.42;7.13;;;6.70;99.90;;;;;;5019883;28;20591;-88
2024/01/25 11:11:13;;;;;;;36.45;6.72;;;6.70;99.90;;;;;;5036946;28;20038;-88
2024/01/25 11:13:40;;;;;;;30.80;6.40;;;6.60;99.90;;;;;;5020883;28;20056;-92
2024/01/25 11:16:17;;;;;;;31.70;7.63;;;6.60;99.90;;;;;;5037522;28;20813;-91
2024/01/25 11:18:49;;;;;;;36.67;7.18;;;7.00;99.90;;;;;;5037002;28;20056;-90
2024/01/25 11:21:44;;;;;;;36.25;7.35;;;6.50;99.90;;;;;;5037450;28;20060;-87
2024/01/25 11:24:19;;;;;;;39.20;7.28;;;6.50;99.90;;;;;;5034578;28;20545;-91
2024/01/25 11:26:46;;;;;;;37.67;6.43;;;6.50;99.90;;;;;;5034108;28;20549;-87
2024/01/25 11:29:20;;;;;;;37.85;7.05;;;6.50;99.90;;;;;;5035489;28;20049;-90
2024/01/25 11:31:47;;;;;;;40.13;6.90;;;6.60;99.90;;;;;;5033617;28;20136;-89
2024/01/25 11:34:17;;;;;;;34.40;6.47;;;6.60;99.90;;;;;;5013974;28;20050;-90
2024/01/25 11:36:44;;;;;;;39.67;7.35;;;6.70;99.90;;;;;;5013500;28;20050;-90
2024/01/25 11:39:15;;;;;;;41.70;7.80;;;6.80;99.90;;;;;;5013729;28;20054;-90
2024/01/25 11:41:42;;;;;;;37.75;7.32;;;6.80;99.90;;;;;;5013593;28;20137;-88
2024/01/25 11:44:10;;;;;;;37.25;6.85;;;6.90;99.90;;;;;;5013399;28;20057;-91
2024/01/25 11:46:36;;;;;;;38.83;7.18;;;6.90;99.90;;;;;;5013468;28;20057;-90
2024/01/25 11:49:02;;;;;;;35.72;7.82;;;6.90;99.90;;;;;;5032222;28;20700;-88
2024/01/25 11:51:27;;;;;;;42.05;7.88;;;7.20;99.90;;;;;;5033319;28;20110;-89
2024/01/25 11:53:53;;;;;;;32.80;7.05;;;6.90;99.90;;;;;;5031469;28;20100;-89
2024/01/25 11:56:29;;;;;;;39.25;7.15;;;7.00;99.90;;;;;;5029776;28;20052;-89
2024/01/25 11:58:58;;;;;;;37.33;7.22;;;7.00;99.90;;;;;;5032273;28;20075;-88
2024/01/25 12:01:28;;;;;;;33.00;6.03;;;7.00;99.90;;;;;;5032887;28;20187;-89
2024/01/25 12:03:54;;;;;;;39.38;8.38;;;7.10;99.90;;;;;;5028815;28;20495;-89
2024/01/25 12:06:19;;;;;;;43.17;6.43;;;7.20;99.90;;;;;;5032003;28;20052;-89
2024/01/25 12:08:51;;;;;;;34.75;6.45;;;7.40;99.90;;;;;;5032877;28;20128;-87
2024/01/25 12:11:18;;;;;;;36.28;6.20;;;7.30;99.90;;;;;;5032437;28;20407;-88
2024/01/25 12:13:45;;;;;;;31.67;6.03;;;7.30;99.90;;;;;;5030841;28;20588;-89
2024/01/25 12:16:12;;;;;;;27.33;6.30;;;7.40;99.90;;;;;;5016241;28;20119;-87
2024/01/25 12:18:38;;;;;;;29.77;5.82;;;7.70;99.90;;;;;;5032434;28;20120;-90
2024/01/25 12:21:05;;;;;;;29.95;7.40;;;7.50;99.90;;;;;;5031933;28;20046;-90
2024/01/25 12:23:35;;;;;;;37.58;8.85;;;7.50;99.90;;;;;;5021338;28;20070;-88
2024/01/25 12:26:03;;;;;;;32.45;7.25;;;7.60;99.90;;;;;;5015958;28;20058;-88
2024/01/25 12:28:30;;;;;;;39.92;7.53;;;7.60;99.90;;;;;;5012148;28;20507;-89
2024/01/25 12:30:56;;;;;;;31.77;7.03;;;7.50;99.90;;;;;;5012387;28;20061;-89
2024/01/25 12:33:22;;;;;;;34.35;7.50;;;7.80;99.90;;;;;;5013252;28;20104;-88
2024/01/25 12:35:48;;;;;;;33.53;7.60;;;7.60;99.90;;;;;;5012947;28;20046;-88
2024/01/25 12:38:13;;;;;;;36.00;7.75;;;7.70;99.90;;;;;;5013979;28;20042;-89
2024/01/25 12:40:41;;;;;;;31.05;5.78;;;7.70;99.90;;;;;;5013785;28;20053;-90
2024/01/25 12:43:07;;;;;;;33.00;7.10;;;7.80;99.90;;;;;;5012526;28;20081;-89
2024/01/25 12:45:33;;;;;;;29.60;8.32;;;7.80;99.90;;;;;;5012236;28;20077;-89